createdAt,value
2023-02-11T00:00:56.434Z,26.40
2023-02-11T00:03:23.677Z,26.13
2023-02-11T00:06:01.864Z,25.00
2023-02-11T00:08:28.918Z,26.70
2023-02-11T00:10:58.893Z,26.00
2023-02-11T00:13:25.804Z,26.50
2023-02-11T00:15:53.114Z,25.77
2023-02-11T00:18:19.794Z,25.13
2023-02-11T00:20:46.706Z,26.50
2023-02-11T00:23:13.975Z,25.70
2023-02-11T00:25:45.083Z,23.77
2023-02-11T00:28:12.093Z,26.50
2023-02-11T00:30:38.908Z,23.73
2023-02-11T00:33:05.716Z,24.10
2023-02-11T00:35:32.425Z,27.00
2023-02-11T00:37:59.147Z,24.70
2023-02-11T00:40:26.027Z,25.10
2023-02-11T00:42:53.474Z,25.20
2023-02-11T00:45:21.139Z,26.10
2023-02-11T00:47:48.403Z,25.30
2023-02-11T00:50:15.071Z,23.20
2023-02-11T00:52:42.341Z,24.07
2023-02-11T00:55:09.206Z,23.93
2023-02-11T00:57:36.249Z,22.20
2023-02-11T01:00:04.949Z,23.07
2023-02-11T01:02:31.642Z,21.90
2023-02-11T01:04:59.936Z,22.77
2023-02-11T01:07:28.014Z,22.97
2023-02-11T01:09:54.728Z,23.50
2023-02-11T01:12:21.744Z,23.13
2023-02-11T01:14:48.525Z,22.67
2023-02-11T01:17:15.645Z,21.60
2023-02-11T01:19:42.614Z,22.53
2023-02-11T01:22:09.431Z,22.90
2023-02-11T01:24:36.771Z,21.60
2023-02-11T01:27:03.715Z,21.97
2023-02-11T01:29:30.516Z,22.03
2023-02-11T01:31:57.402Z,20.83
2023-02-11T01:34:24.155Z,20.67
2023-02-11T01:36:50.813Z,19.40
2023-02-11T01:39:17.506Z,19.17
2023-02-11T01:41:44.170Z,20.13
2023-02-11T01:44:31.648Z,20.60
2023-02-11T01:46:58.645Z,20.70
2023-02-11T01:49:27.858Z,20.47
2023-02-11T01:52:10.605Z,19.17
2023-02-11T01:55:03.259Z,18.30
2023-02-11T01:57:33.910Z,18.47
2023-02-11T02:00:06.729Z,19.70
2023-02-11T02:02:43.647Z,18.30
2023-02-11T02:05:20.668Z,20.00
2023-02-11T02:08:20.790Z,19.60
2023-02-11T02:10:53.786Z,19.30
2023-02-11T02:13:20.924Z,18.93
2023-02-11T02:15:56.045Z,18.37
2023-02-11T02:18:41.489Z,17.90
2023-02-11T02:21:36.164Z,18.17
2023-02-11T02:24:21.190Z,17.93
2023-02-11T02:27:17.176Z,18.90
2023-02-11T02:30:05.397Z,18.70
2023-02-11T02:32:58.333Z,18.27
2023-02-11T02:35:25.654Z,16.63
2023-02-11T02:38:08.666Z,18.47
2023-02-11T02:41:02.631Z,16.33
2023-02-11T02:43:30.587Z,17.40
2023-02-11T02:46:10.677Z,15.40
2023-02-11T02:48:37.946Z,15.20
2023-02-11T02:51:42.715Z,16.73
2023-02-11T02:54:29.734Z,16.70
2023-02-11T02:57:33.982Z,16.23
2023-02-11T03:00:15.056Z,14.60
2023-02-11T03:02:52.895Z,16.60
2023-02-11T03:05:54.716Z,14.83
2023-02-11T03:08:39.512Z,14.57
2023-02-11T03:11:08.992Z,14.70
2023-02-11T03:13:37.979Z,15.23
2023-02-11T03:16:26.874Z,14.07
2023-02-11T03:19:01.970Z,14.20
2023-02-11T03:21:32.438Z,14.03
2023-02-11T03:24:05.893Z,14.90
2023-02-11T03:26:32.554Z,13.97
2023-02-11T03:29:14.530Z,14.50
2023-02-11T03:31:54.508Z,13.90
2023-02-11T03:34:46.054Z,14.67
2023-02-11T03:37:35.878Z,15.20
2023-02-11T03:40:05.130Z,14.60
2023-02-11T03:42:38.682Z,14.20
2023-02-11T03:45:12.391Z,14.57
2023-02-11T03:47:46.028Z,14.67
2023-02-11T03:50:15.428Z,15.13
2023-02-11T03:52:43.802Z,15.07
2023-02-11T03:55:15.746Z,16.17
2023-02-11T03:57:42.723Z,13.73
2023-02-11T04:00:11.458Z,14.50
2023-02-11T04:02:39.364Z,14.30
2023-02-11T04:05:08.281Z,14.43
2023-02-11T04:07:35.507Z,14.90
2023-02-11T04:10:02.649Z,14.57
2023-02-11T04:12:29.530Z,14.30
2023-02-11T04:14:58.540Z,13.30
2023-02-11T04:17:25.624Z,14.57
2023-02-11T04:19:52.504Z,15.77
2023-02-11T04:22:19.480Z,14.70
2023-02-11T04:24:46.412Z,13.03
2023-02-11T04:27:13.941Z,15.57
2023-02-11T04:29:40.886Z,15.10
2023-02-11T04:32:07.849Z,15.67
2023-02-11T04:34:34.911Z,15.40
2023-02-11T04:37:01.839Z,14.73
2023-02-11T04:39:28.955Z,14.27
2023-02-11T04:41:55.808Z,14.90
2023-02-11T04:44:22.907Z,15.03
2023-02-11T04:46:49.552Z,14.70
2023-02-11T04:49:17.702Z,15.07
2023-02-11T04:51:49.394Z,15.30
2023-02-11T04:54:17.183Z,16.50
2023-02-11T04:56:44.739Z,13.60
2023-02-11T04:59:13.164Z,14.60
2023-02-11T05:01:40.432Z,13.73
2023-02-11T05:04:07.272Z,15.43
2023-02-11T05:06:34.000Z,15.00
2023-02-11T05:09:00.664Z,16.23
2023-02-11T05:11:27.322Z,14.50
2023-02-11T05:13:54.010Z,15.70
2023-02-11T05:16:21.029Z,16.17
2023-02-11T05:18:49.648Z,15.63
2023-02-11T05:21:19.282Z,15.90
2023-02-11T05:23:45.994Z,16.03
2023-02-11T05:26:13.326Z,17.60
2023-02-11T05:28:40.749Z,18.53
2023-02-11T05:31:08.225Z,17.17
2023-02-11T05:33:35.298Z,18.40
2023-02-11T05:36:08.439Z,16.40
2023-02-11T05:38:35.684Z,14.93
2023-02-11T05:41:03.614Z,18.87
2023-02-11T05:43:30.513Z,16.37
2023-02-11T05:45:57.294Z,18.53
2023-02-11T05:48:24.029Z,17.00
2023-02-11T05:50:51.314Z,18.60
2023-02-11T05:53:17.978Z,17.80
2023-02-11T05:55:44.916Z,17.30
2023-02-11T05:58:11.868Z,17.27
2023-02-11T06:00:38.541Z,18.90
2023-02-11T06:03:05.695Z,18.43
2023-02-11T06:05:32.343Z,16.00
2023-02-11T06:07:59.424Z,16.90
2023-02-11T06:10:26.508Z,17.90
2023-02-11T06:12:54.440Z,16.10
2023-02-11T06:15:21.204Z,18.03
2023-02-11T06:17:48.219Z,16.27
2023-02-11T06:20:15.679Z,15.70
2023-02-11T06:22:42.419Z,17.47
2023-02-11T06:25:10.926Z,15.93
2023-02-11T06:27:38.234Z,16.30
2023-02-11T06:30:06.283Z,14.83
2023-02-11T06:32:43.764Z,14.67
2023-02-11T06:35:12.650Z,15.00
2023-02-11T06:37:41.174Z,14.17
2023-02-11T06:40:08.550Z,16.53
2023-02-11T06:42:36.127Z,15.03
2023-02-11T06:45:05.944Z,15.20
2023-02-11T06:47:32.865Z,15.30
2023-02-11T06:49:59.636Z,14.77
2023-02-11T06:52:26.645Z,14.27
2023-02-11T06:54:53.988Z,15.33
2023-02-11T06:57:21.048Z,14.83
2023-02-11T06:59:47.737Z,15.20
2023-02-11T07:02:14.465Z,16.37
2023-02-11T07:04:41.357Z,15.43
2023-02-11T07:07:08.185Z,13.87
2023-02-11T07:09:34.956Z,15.97
2023-02-11T07:12:01.664Z,15.70
2023-02-11T07:14:28.609Z,14.60
2023-02-11T07:16:55.613Z,15.37
2023-02-11T07:19:22.379Z,14.47
2023-02-11T07:21:49.143Z,15.77
2023-02-11T07:24:15.897Z,14.90
2023-02-11T07:26:42.906Z,14.80
2023-02-11T07:29:09.581Z,16.50
2023-02-11T07:31:36.512Z,15.80
2023-02-11T07:34:03.633Z,15.13
2023-02-11T07:36:32.675Z,15.73
2023-02-11T07:39:00.214Z,14.73
2023-02-11T07:41:27.452Z,15.67
2023-02-11T07:43:54.653Z,15.80
2023-02-11T07:46:23.987Z,16.90
2023-02-11T07:48:51.174Z,18.47
2023-02-11T07:51:23.779Z,17.27
2023-02-11T07:53:51.985Z,17.87
2023-02-11T07:56:20.492Z,16.90
2023-02-11T07:58:47.938Z,17.70
2023-02-11T08:01:17.903Z,18.37
2023-02-11T08:03:45.043Z,18.00
2023-02-11T08:06:15.465Z,18.17
2023-02-11T08:08:42.892Z,19.90
2023-02-11T08:11:17.885Z,18.50
2023-02-11T08:13:45.383Z,21.67
2023-02-11T08:16:24.462Z,22.47
2023-02-11T08:18:52.654Z,19.93
2023-02-11T08:21:22.829Z,18.87
2023-02-11T08:23:50.177Z,19.80
2023-02-11T08:26:19.897Z,19.40
2023-02-11T08:28:48.207Z,20.93
2023-02-11T08:31:27.487Z,20.97
2023-02-11T08:33:57.793Z,20.10
2023-02-11T08:36:26.543Z,22.97
2023-02-11T08:39:16.141Z,18.57
2023-02-11T08:41:45.897Z,22.43
2023-02-11T08:44:12.767Z,22.83
2023-02-11T08:46:39.472Z,22.90
2023-02-11T08:49:06.304Z,21.63
2023-02-11T08:51:33.578Z,24.00
2023-02-11T08:54:01.141Z,23.80
2023-02-11T08:56:28.284Z,24.10
2023-02-11T08:58:55.233Z,22.73
2023-02-11T09:01:30.527Z,22.63
2023-02-11T09:03:58.419Z,22.03
2023-02-11T09:06:26.709Z,22.43
2023-02-11T09:08:56.923Z,24.37
2023-02-11T09:11:33.837Z,23.50
2023-02-11T09:14:04.690Z,22.93
2023-02-11T09:16:34.187Z,25.20
2023-02-11T09:19:03.235Z,25.87
2023-02-11T09:21:30.383Z,23.93
2023-02-11T09:23:57.838Z,25.13
2023-02-11T09:26:27.992Z,24.30
2023-02-11T09:28:55.076Z,25.20
2023-02-11T09:31:24.967Z,25.23
2023-02-11T09:33:55.300Z,24.67
2023-02-11T09:36:29.069Z,24.07
2023-02-11T09:38:58.163Z,26.13
2023-02-11T09:41:34.475Z,26.57
2023-02-11T09:44:04.942Z,24.50
2023-02-11T09:46:43.471Z,24.67
2023-02-11T09:49:22.500Z,24.80
2023-02-11T09:51:59.130Z,24.77
2023-02-11T09:54:31.581Z,27.50
2023-02-11T09:57:00.093Z,26.00
2023-02-11T09:59:26.837Z,25.80
2023-02-11T10:02:02.494Z,27.30
2023-02-11T10:04:40.091Z,26.50
2023-02-11T10:07:43.499Z,29.57
2023-02-11T10:10:34.704Z,26.27
2023-02-11T10:13:23.615Z,27.10
2023-02-11T10:15:58.392Z,27.03
2023-02-11T10:18:30.982Z,27.53
2023-02-11T10:21:15.859Z,25.70
2023-02-11T10:23:46.523Z,27.50
2023-02-11T10:26:16.809Z,29.53
2023-02-11T10:28:47.968Z,28.07
2023-02-11T10:31:41.951Z,27.80
2023-02-11T10:34:13.250Z,28.53
2023-02-11T10:36:42.333Z,27.60
2023-02-11T10:39:21.357Z,28.87
2023-02-11T10:41:54.308Z,28.70
2023-02-11T10:44:38.112Z,28.87
2023-02-11T10:47:21.161Z,28.00
2023-02-11T10:49:48.905Z,26.77
2023-02-11T10:52:25.551Z,28.60
2023-02-11T10:55:10.413Z,30.47
2023-02-11T10:57:44.480Z,28.73
2023-02-11T11:00:36.067Z,31.10
2023-02-11T11:03:15.312Z,29.83
2023-02-11T11:06:06.556Z,27.93
2023-02-11T11:08:49.184Z,28.90
2023-02-11T11:11:21.608Z,28.63
2023-02-11T11:13:59.417Z,29.27
2023-02-11T11:16:30.074Z,29.10
2023-02-11T11:19:08.837Z,29.87
2023-02-11T11:21:53.034Z,30.03
2023-02-11T11:24:38.578Z,29.77
2023-02-11T11:27:06.275Z,32.10
2023-02-11T11:29:39.878Z,28.00
2023-02-11T11:32:20.866Z,26.40
2023-02-11T11:34:56.622Z,30.90
2023-02-11T11:37:29.079Z,29.43
2023-02-11T11:40:18.030Z,28.40
2023-02-11T11:42:44.737Z,31.73
2023-02-11T11:45:20.323Z,29.93
2023-02-11T11:48:14.863Z,28.97
2023-02-11T11:50:57.137Z,30.63
2023-02-11T11:53:29.267Z,31.40
2023-02-11T11:56:08.484Z,29.60
2023-02-11T11:58:35.558Z,31.87
2023-02-11T12:01:23.987Z,30.63
2023-02-11T12:04:15.253Z,33.37
2023-02-11T12:06:53.941Z,31.30
2023-02-11T12:09:45.482Z,29.87
2023-02-11T12:12:26.584Z,29.83
2023-02-11T12:14:53.240Z,29.40
2023-02-11T12:17:50.892Z,32.77
2023-02-11T12:20:24.171Z,31.00
2023-02-11T12:23:16.919Z,29.87
2023-02-11T12:25:47.724Z,31.27
2023-02-11T12:28:30.017Z,30.30
2023-02-11T12:31:15.397Z,32.40
2023-02-11T12:33:50.848Z,30.30
2023-02-11T12:37:01.340Z,32.47
2023-02-11T12:39:50.760Z,32.27
2023-02-11T12:43:03.907Z,30.20
2023-02-11T12:45:39.811Z,32.30
2023-02-11T12:48:22.918Z,32.00
2023-02-11T12:50:56.910Z,33.63
2023-02-11T12:53:44.553Z,29.70
2023-02-11T12:56:34.478Z,31.50
2023-02-11T12:59:04.908Z,32.70
2023-02-11T13:01:39.632Z,31.67
2023-02-11T13:04:09.705Z,31.73
2023-02-11T13:06:43.432Z,33.70
2023-02-11T13:09:18.984Z,32.10
2023-02-11T13:11:51.993Z,32.40
2023-02-11T13:14:35.528Z,32.07
2023-02-11T13:17:09.121Z,29.90
2023-02-11T13:19:50.587Z,32.40
2023-02-11T13:22:28.741Z,30.53
2023-02-11T13:25:25.683Z,29.93
2023-02-11T13:27:58.799Z,30.07
2023-02-11T13:30:32.617Z,31.13
2023-02-11T13:33:02.258Z,30.33
2023-02-11T13:35:33.476Z,30.77
2023-02-11T13:38:05.592Z,28.67
2023-02-11T13:40:38.407Z,28.57
2023-02-11T13:43:07.529Z,28.87
2023-02-11T13:45:36.526Z,26.43
2023-02-11T13:48:08.303Z,27.63
2023-02-11T13:50:39.447Z,27.07
2023-02-11T13:53:08.702Z,25.63
2023-02-11T13:55:35.669Z,25.07
2023-02-11T13:58:08.399Z,27.17
2023-02-11T14:00:35.049Z,26.10
2023-02-11T14:03:29.492Z,25.13
2023-02-11T14:06:26.904Z,23.40
2023-02-11T14:09:09.182Z,24.20
2023-02-11T14:11:44.491Z,24.80
2023-02-11T14:14:35.029Z,22.57
2023-02-11T14:17:08.221Z,24.27
2023-02-11T14:19:41.154Z,22.10
2023-02-11T14:22:38.530Z,22.77
2023-02-11T14:25:21.985Z,21.70
2023-02-11T14:28:15.380Z,21.80
2023-02-11T14:30:52.840Z,22.03
2023-02-11T14:33:32.124Z,22.83
2023-02-11T14:36:48.616Z,20.73
2023-02-11T14:39:52.955Z,22.53
2023-02-11T14:42:22.558Z,19.60
2023-02-11T14:44:50.887Z,21.33
2023-02-11T14:47:22.797Z,20.23
2023-02-11T14:49:50.932Z,20.80
2023-02-11T14:52:28.569Z,20.90
2023-02-11T14:55:27.784Z,20.00
2023-02-11T14:58:17.159Z,20.63
2023-02-11T15:01:22.441Z,21.60
2023-02-11T15:03:50.011Z,20.53
2023-02-11T15:06:47.807Z,19.00
2023-02-11T15:09:37.657Z,22.27
2023-02-11T15:12:05.008Z,21.50
2023-02-11T15:14:34.754Z,21.20
2023-02-11T15:17:04.405Z,21.60
2023-02-11T15:19:36.025Z,21.67
2023-02-11T15:22:07.600Z,21.47
2023-02-11T15:24:35.623Z,21.30
2023-02-11T15:27:21.001Z,19.97
2023-02-11T15:29:51.141Z,19.50
2023-02-11T15:32:23.225Z,20.47
2023-02-11T15:34:52.432Z,19.40
2023-02-11T15:37:26.178Z,20.73
2023-02-11T15:39:55.059Z,18.57
2023-02-11T15:42:35.863Z,19.33
2023-02-11T15:45:15.635Z,18.90
2023-02-11T15:47:52.679Z,19.00
2023-02-11T15:50:22.485Z,20.43
2023-02-11T15:52:51.029Z,18.97
2023-02-11T15:55:19.789Z,20.97
2023-02-11T15:57:55.561Z,18.50
2023-02-11T16:00:26.118Z,19.37
2023-02-11T16:02:53.154Z,20.07
2023-02-11T16:05:34.421Z,20.53
2023-02-11T16:08:13.660Z,20.10
2023-02-11T16:10:53.343Z,19.63
2023-02-11T16:13:20.771Z,20.17
2023-02-11T16:15:54.802Z,20.90
2023-02-11T16:18:36.745Z,19.10
2023-02-11T16:21:06.866Z,19.57
2023-02-11T16:23:39.037Z,19.43
2023-02-11T16:26:12.891Z,19.47
2023-02-11T16:28:40.895Z,19.47
2023-02-11T16:31:09.647Z,19.80
2023-02-11T16:33:36.657Z,20.67
2023-02-11T16:36:12.247Z,20.30
2023-02-11T16:38:39.174Z,20.10
2023-02-11T16:41:06.432Z,19.57
2023-02-11T16:43:33.287Z,19.47
2023-02-11T16:46:00.208Z,20.73
2023-02-11T16:48:27.202Z,17.33
2023-02-11T16:50:54.360Z,19.10
2023-02-11T16:53:24.131Z,20.67
2023-02-11T16:55:53.436Z,20.87
2023-02-11T16:58:20.873Z,21.20
2023-02-11T17:00:49.193Z,21.80
2023-02-11T17:03:22.768Z,20.20
2023-02-11T17:05:55.626Z,20.93
2023-02-11T17:08:23.683Z,22.20
2023-02-11T17:10:50.859Z,22.00
2023-02-11T17:13:17.970Z,23.67
2023-02-11T17:15:44.852Z,22.50
2023-02-11T17:18:15.009Z,23.80
2023-02-11T17:20:42.144Z,22.83
2023-02-11T17:23:09.766Z,22.57
2023-02-11T17:25:37.660Z,24.50
2023-02-11T17:28:05.910Z,23.87
2023-02-11T17:30:33.141Z,26.17
2023-02-11T17:33:00.295Z,23.47
2023-02-11T17:35:27.416Z,23.43
2023-02-11T17:37:54.370Z,23.83
2023-02-11T17:40:21.519Z,25.10
2023-02-11T17:42:48.408Z,26.60
2023-02-11T17:45:15.353Z,25.20
2023-02-11T17:47:42.249Z,26.50
2023-02-11T17:50:09.618Z,27.70
2023-02-11T17:52:37.937Z,25.50
2023-02-11T17:55:05.940Z,25.60
2023-02-11T17:57:33.333Z,27.50
2023-02-11T18:00:00.256Z,29.80
2023-02-11T18:02:27.400Z,27.60
2023-02-11T18:04:57.500Z,28.67
2023-02-11T18:07:26.037Z,31.00
2023-02-11T18:09:53.378Z,30.67
2023-02-11T18:12:25.306Z,30.03
2023-02-11T18:14:55.552Z,29.67
2023-02-11T18:17:25.214Z,31.93
2023-02-11T18:19:56.080Z,29.77
2023-02-11T18:22:24.756Z,31.60
2023-02-11T18:24:55.666Z,33.37
2023-02-11T18:27:23.856Z,32.87
2023-02-11T18:29:50.859Z,31.37
2023-02-11T18:32:17.777Z,34.27
2023-02-11T18:34:47.981Z,32.87
2023-02-11T18:37:16.394Z,34.20
2023-02-11T18:39:43.962Z,35.40
2023-02-11T18:42:11.209Z,34.03
2023-02-11T18:44:38.526Z,32.67
2023-02-11T18:47:05.501Z,34.40
2023-02-11T18:49:33.116Z,34.90
2023-02-11T18:52:00.093Z,35.40
2023-02-11T18:54:28.115Z,35.63
2023-02-11T18:56:55.153Z,35.60
2023-02-11T18:59:21.974Z,37.27
2023-02-11T19:01:49.997Z,36.67
2023-02-11T19:04:19.945Z,34.60
2023-02-11T19:06:49.510Z,36.07
2023-02-11T19:09:19.126Z,35.23
2023-02-11T19:11:54.209Z,36.70
2023-02-11T19:14:31.393Z,36.40
2023-02-11T19:17:00.003Z,38.47
2023-02-11T19:19:28.963Z,36.47
2023-02-11T19:21:56.864Z,37.43
2023-02-11T19:24:24.173Z,39.23
2023-02-11T19:26:52.804Z,36.80
2023-02-11T19:29:20.122Z,34.80
2023-02-11T19:31:47.227Z,35.57
2023-02-11T19:34:16.412Z,38.83
2023-02-11T19:36:43.549Z,39.40
2023-02-11T19:39:10.614Z,36.77
2023-02-11T19:41:37.994Z,37.53
2023-02-11T19:44:06.964Z,41.23
2023-02-11T19:46:38.716Z,36.20
2023-02-11T19:49:05.942Z,37.30
2023-02-11T19:51:33.774Z,39.87
2023-02-11T19:54:01.447Z,38.80
2023-02-11T19:56:29.292Z,38.50
2023-02-11T19:58:56.386Z,39.40
2023-02-11T20:01:25.446Z,37.90
2023-02-11T20:03:55.359Z,39.73
2023-02-11T20:06:33.350Z,38.77
2023-02-11T20:09:03.168Z,40.33
2023-02-11T20:11:31.411Z,37.20
2023-02-11T20:13:58.406Z,38.40
2023-02-11T20:16:41.044Z,37.60
2023-02-11T20:19:17.978Z,37.13
2023-02-11T20:21:47.405Z,37.87
2023-02-11T20:24:18.487Z,37.00
2023-02-11T20:26:52.859Z,37.17
2023-02-11T20:29:21.677Z,36.27
2023-02-11T20:31:50.791Z,39.70
2023-02-11T20:34:18.890Z,37.53
2023-02-11T20:36:52.227Z,37.83
2023-02-11T20:39:22.205Z,38.40
2023-02-11T20:41:53.247Z,38.50
2023-02-11T20:44:24.607Z,37.00
2023-02-11T20:46:54.700Z,37.10
2023-02-11T20:49:24.182Z,36.47
2023-02-11T20:51:54.196Z,40.20
2023-02-11T20:54:23.394Z,38.40
2023-02-11T20:56:52.040Z,38.23
2023-02-11T20:59:20.116Z,38.90
2023-02-11T21:01:51.457Z,37.13
2023-02-11T21:04:22.521Z,37.47
2023-02-11T21:06:52.594Z,40.00
2023-02-11T21:09:25.090Z,38.13
2023-02-11T21:11:53.080Z,36.20
2023-02-11T21:14:22.361Z,36.97
2023-02-11T21:16:49.914Z,36.03
2023-02-11T21:19:17.108Z,37.80
2023-02-11T21:21:44.441Z,38.00
2023-02-11T21:24:12.083Z,37.03
2023-02-11T21:26:39.536Z,38.47
2023-02-11T21:29:07.737Z,35.60
2023-02-11T21:31:36.775Z,36.13
2023-02-11T21:34:04.652Z,36.43
2023-02-11T21:36:31.723Z,36.03
2023-02-11T21:38:58.861Z,35.07
2023-02-11T21:41:27.393Z,37.30
2023-02-11T21:43:54.403Z,36.87
2023-02-11T21:46:21.916Z,35.40
2023-02-11T21:48:49.516Z,34.30
2023-02-11T21:51:22.611Z,35.57
2023-02-11T21:53:54.129Z,36.20
2023-02-11T21:56:21.610Z,37.00
2023-02-11T21:58:52.696Z,33.83
2023-02-11T22:01:23.466Z,35.33
2023-02-11T22:03:50.829Z,34.87
2023-02-11T22:06:26.243Z,35.30
2023-02-11T22:08:54.911Z,35.80
2023-02-11T22:11:22.536Z,34.73
2023-02-11T22:13:57.827Z,34.77
2023-02-11T22:16:32.622Z,34.33
2023-02-11T22:19:06.020Z,35.37
2023-02-11T22:21:32.966Z,34.17
2023-02-11T22:24:00.130Z,34.53
2023-02-11T22:26:27.997Z,33.87
2023-02-11T22:28:55.398Z,31.60
2023-02-11T22:31:28.861Z,32.17
2023-02-11T22:33:57.163Z,31.90
2023-02-11T22:36:29.528Z,34.63
2023-02-11T22:39:00.124Z,33.10
2023-02-11T22:41:26.981Z,33.23
2023-02-11T22:43:53.909Z,30.90
2023-02-11T22:46:21.346Z,30.77
2023-02-11T22:48:49.243Z,31.77
2023-02-11T22:51:24.573Z,31.40
2023-02-11T22:53:56.741Z,32.00
2023-02-11T22:56:24.775Z,31.43
2023-02-11T22:58:53.715Z,29.53
2023-02-11T23:01:21.210Z,28.67
2023-02-11T23:03:48.168Z,29.50
2023-02-11T23:06:15.381Z,28.20
2023-02-11T23:08:45.288Z,29.00
2023-02-11T23:11:15.741Z,29.70
2023-02-11T23:13:43.504Z,27.97
2023-02-11T23:16:13.795Z,26.80
2023-02-11T23:18:42.113Z,28.73
2023-02-11T23:21:12.907Z,28.43
2023-02-11T23:23:40.879Z,28.50
2023-02-11T23:26:13.252Z,25.87
2023-02-11T23:28:40.584Z,26.30
2023-02-11T23:31:27.353Z,29.10
2023-02-11T23:33:55.116Z,26.40
2023-02-11T23:36:23.190Z,27.70
2023-02-11T23:38:51.322Z,27.53
2023-02-11T23:41:18.543Z,28.10
2023-02-11T23:43:50.814Z,27.53
2023-02-11T23:46:18.152Z,27.27
2023-02-11T23:48:45.519Z,25.60
2023-02-11T23:51:12.736Z,28.40
2023-02-11T23:53:39.928Z,28.20
2023-02-11T23:56:14.112Z,28.90
2023-02-11T23:58:41.345Z,26.60
